createdAt,value
2023-06-27T00:00:14.151Z,73.89
2023-06-27T00:02:42.452Z,73.98
2023-06-27T00:05:11.113Z,73.19
2023-06-27T00:07:42.510Z,73.48
2023-06-27T00:10:12.554Z,73.88
2023-06-27T00:12:40.603Z,74.00
2023-06-27T00:15:11.508Z,73.85
2023-06-27T00:17:41.808Z,74.66
2023-06-27T00:20:11.925Z,74.89
2023-06-27T00:22:41.969Z,75.45
2023-06-27T00:25:11.935Z,76.14
2023-06-27T00:27:40.181Z,76.33
2023-06-27T00:30:10.859Z,76.54
2023-06-27T00:32:39.154Z,76.55
2023-06-27T00:35:08.454Z,76.88
2023-06-27T00:37:36.389Z,77.16
2023-06-27T00:40:05.860Z,77.24
2023-06-27T00:42:33.798Z,77.72
2023-06-27T00:45:01.766Z,77.84
2023-06-27T00:47:32.040Z,77.89
2023-06-27T00:49:59.994Z,77.78
2023-06-27T00:52:28.558Z,78.46
2023-06-27T00:54:56.992Z,78.84
2023-06-27T00:57:24.936Z,79.26
2023-06-27T00:59:55.625Z,79.56
2023-06-27T01:02:25.183Z,79.30
2023-06-27T01:04:55.050Z,80.17
2023-06-27T01:07:34.349Z,80.07
2023-06-27T01:10:11.520Z,80.25
2023-06-27T01:12:50.836Z,80.25
2023-06-27T01:15:19.306Z,80.89
2023-06-27T01:17:47.814Z,81.38
2023-06-27T01:20:18.007Z,81.33
2023-06-27T01:23:06.205Z,81.81
2023-06-27T01:25:39.285Z,81.80
2023-06-27T01:28:07.736Z,81.17
2023-06-27T01:30:36.124Z,81.30
2023-06-27T01:33:12.706Z,81.54
2023-06-27T01:35:51.265Z,81.79
2023-06-27T01:38:27.700Z,82.45
2023-06-27T01:41:00.154Z,82.63
2023-06-27T01:43:31.729Z,83.37
2023-06-27T01:46:00.300Z,82.97
2023-06-27T01:48:29.747Z,83.11
2023-06-27T01:50:57.828Z,83.30
2023-06-27T01:53:25.929Z,83.69
2023-06-27T01:55:53.917Z,83.77
2023-06-27T01:58:24.534Z,83.70
2023-06-27T02:00:52.760Z,84.17
2023-06-27T02:03:20.895Z,84.72
2023-06-27T02:05:48.979Z,84.87
2023-06-27T02:08:16.983Z,85.20
2023-06-27T02:10:45.005Z,86.05
2023-06-27T02:13:13.503Z,85.56
2023-06-27T02:15:43.117Z,85.51
2023-06-27T02:18:11.386Z,86.11
2023-06-27T02:20:39.401Z,86.47
2023-06-27T02:23:07.322Z,87.30
2023-06-27T02:25:35.363Z,87.16
2023-06-27T02:28:04.612Z,87.83
2023-06-27T02:30:32.706Z,87.53
2023-06-27T02:33:02.152Z,87.77
2023-06-27T02:35:30.189Z,88.46
2023-06-27T02:37:58.150Z,88.96
2023-06-27T02:40:26.142Z,89.22
2023-06-27T02:42:54.194Z,89.28
2023-06-27T02:45:22.141Z,89.21
2023-06-27T02:47:50.261Z,88.89
2023-06-27T02:50:19.806Z,89.05
2023-06-27T02:52:47.777Z,89.38
2023-06-27T02:55:15.948Z,89.40
2023-06-27T02:57:43.911Z,89.37
2023-06-27T03:00:13.157Z,88.95
2023-06-27T03:02:41.305Z,89.08
2023-06-27T03:05:10.403Z,89.26
2023-06-27T03:07:39.730Z,89.43
2023-06-27T03:10:08.724Z,89.03
2023-06-27T03:12:36.819Z,88.74
2023-06-27T03:15:06.060Z,88.79
2023-06-27T03:17:34.335Z,88.95
2023-06-27T03:20:02.327Z,88.62
2023-06-27T03:22:30.250Z,89.14
2023-06-27T03:24:59.597Z,88.48
2023-06-27T03:27:27.913Z,88.51
2023-06-27T03:29:55.780Z,88.33
2023-06-27T03:32:23.772Z,87.37
2023-06-27T03:34:52.987Z,85.48
2023-06-27T03:37:21.197Z,83.90
2023-06-27T03:39:49.128Z,82.29
2023-06-27T03:42:18.429Z,81.09
2023-06-27T03:44:46.402Z,80.51
2023-06-27T03:47:14.402Z,79.22
2023-06-27T03:49:42.408Z,78.83
2023-06-27T03:52:11.441Z,79.05
2023-06-27T03:54:39.504Z,78.39
2023-06-27T03:57:08.209Z,77.21
2023-06-27T03:59:37.438Z,76.50
2023-06-27T04:02:05.528Z,75.66
2023-06-27T04:04:33.682Z,75.59
2023-06-27T04:07:01.787Z,75.54
2023-06-27T04:09:29.752Z,74.99
2023-06-27T04:11:59.799Z,75.21
2023-06-27T04:14:28.996Z,75.36
2023-06-27T04:16:58.387Z,74.07
2023-06-27T04:19:26.320Z,73.68
2023-06-27T04:21:54.269Z,72.93
2023-06-27T04:24:22.276Z,72.12
2023-06-27T04:26:50.206Z,72.58
2023-06-27T04:29:18.178Z,71.83
2023-06-27T04:31:46.274Z,72.71
2023-06-27T04:34:15.754Z,71.64
2023-06-27T04:36:44.514Z,71.73
2023-06-27T04:39:12.880Z,71.90
2023-06-27T04:41:40.827Z,71.66
2023-06-27T04:45:03.136Z,71.14
2023-06-27T04:47:31.593Z,69.99
2023-06-27T04:50:01.097Z,70.67
2023-06-27T04:52:29.073Z,71.08
2023-06-27T04:54:57.079Z,69.77
2023-06-27T04:57:25.150Z,67.87
2023-06-27T04:59:53.079Z,66.22
2023-06-27T05:02:21.085Z,68.03
2023-06-27T05:04:50.537Z,68.46
2023-06-27T05:07:19.950Z,67.53
2023-06-27T05:09:47.982Z,68.75
2023-06-27T05:12:15.896Z,67.89
2023-06-27T05:14:43.858Z,67.91
2023-06-27T05:17:11.840Z,67.84
2023-06-27T05:19:39.801Z,68.30
2023-06-27T05:22:08.049Z,67.78
2023-06-27T05:24:37.429Z,68.98
2023-06-27T05:27:06.177Z,67.10
2023-06-27T05:29:34.979Z,67.58
2023-06-27T05:32:02.954Z,67.01
2023-06-27T05:34:31.023Z,67.48
2023-06-27T05:36:58.992Z,68.17
2023-06-27T05:39:26.915Z,67.56
2023-06-27T05:41:56.282Z,65.93
2023-06-27T05:44:24.200Z,66.12
2023-06-27T05:46:52.210Z,67.23
2023-06-27T05:49:20.166Z,65.94
2023-06-27T05:51:48.150Z,66.52
2023-06-27T05:54:16.218Z,67.04
2023-06-27T05:56:44.256Z,66.44
2023-06-27T05:59:13.689Z,67.70
2023-06-27T06:01:41.980Z,69.59
2023-06-27T06:04:11.564Z,71.65
2023-06-27T06:06:40.082Z,72.79
2023-06-27T06:09:08.100Z,72.15
2023-06-27T06:11:36.053Z,71.81
2023-06-27T06:14:04.150Z,71.99
2023-06-27T06:16:35.469Z,71.60
2023-06-27T06:19:04.511Z,71.76
2023-06-27T06:21:33.480Z,70.83
2023-06-27T06:24:03.171Z,71.48
2023-06-27T06:26:31.230Z,70.81
2023-06-27T06:28:59.368Z,70.79
2023-06-27T06:31:27.322Z,69.13
2023-06-27T06:33:58.161Z,68.87
2023-06-27T06:36:26.315Z,68.41
2023-06-27T06:38:54.254Z,69.75
2023-06-27T06:41:22.268Z,68.66
2023-06-27T06:43:50.162Z,68.61
2023-06-27T06:46:18.200Z,69.83
2023-06-27T06:48:46.228Z,71.42
2023-06-27T06:51:15.559Z,71.67
2023-06-27T06:53:43.510Z,71.88
2023-06-27T06:56:11.526Z,72.51
2023-06-27T06:58:39.473Z,71.51
2023-06-27T07:01:07.696Z,70.09
2023-06-27T07:03:35.777Z,68.13
2023-06-27T07:06:03.716Z,67.09
2023-06-27T07:08:33.083Z,66.31
2023-06-27T07:11:01.027Z,67.44
2023-06-27T07:13:28.921Z,68.42
2023-06-27T07:15:56.845Z,68.25
2023-06-27T07:18:24.839Z,67.43
2023-06-27T07:20:52.740Z,66.93
2023-06-27T07:23:20.718Z,65.56
2023-06-27T07:25:50.004Z,65.05
2023-06-27T07:28:18.698Z,65.80
2023-06-27T07:30:47.190Z,64.95
2023-06-27T07:33:16.799Z,63.87
2023-06-27T07:35:47.290Z,63.12
2023-06-27T07:38:17.251Z,62.32
2023-06-27T07:40:46.776Z,62.50
2023-06-27T07:43:16.272Z,63.88
2023-06-27T07:45:44.751Z,64.87
2023-06-27T07:48:12.763Z,64.06
2023-06-27T07:50:41.004Z,64.19
2023-06-27T07:53:09.286Z,62.51
2023-06-27T07:55:37.217Z,61.60
2023-06-27T07:58:05.226Z,61.03
2023-06-27T08:00:34.863Z,60.46
2023-06-27T08:03:11.596Z,58.71
2023-06-27T08:05:41.621Z,59.78
2023-06-27T08:08:11.751Z,59.45
2023-06-27T08:10:40.128Z,60.58
2023-06-27T08:13:08.288Z,58.78
2023-06-27T08:15:37.663Z,59.34
2023-06-27T08:18:07.223Z,58.31
2023-06-27T08:20:35.549Z,57.04
2023-06-27T08:23:03.442Z,57.77
2023-06-27T08:25:31.482Z,57.73
2023-06-27T08:27:59.462Z,57.61
2023-06-27T08:30:29.374Z,58.28
2023-06-27T08:32:58.809Z,57.44
2023-06-27T08:35:29.937Z,58.02
2023-06-27T08:37:58.360Z,58.53
2023-06-27T08:40:29.204Z,59.42
2023-06-27T08:42:57.472Z,58.74
2023-06-27T08:45:25.559Z,58.57
2023-06-27T08:47:54.097Z,57.26
2023-06-27T08:50:24.899Z,57.14
2023-06-27T08:52:58.239Z,55.86
2023-06-27T08:55:41.525Z,57.44
2023-06-27T08:58:16.261Z,58.27
2023-06-27T09:00:46.247Z,58.56
2023-06-27T09:03:15.036Z,60.24
2023-06-27T09:05:48.613Z,60.19
2023-06-27T09:08:16.712Z,59.23
2023-06-27T09:10:51.883Z,57.87
2023-06-27T09:13:28.162Z,61.35
2023-06-27T09:15:56.383Z,63.98
2023-06-27T09:18:24.459Z,66.87
2023-06-27T09:20:57.488Z,69.97
2023-06-27T09:23:28.268Z,70.76
2023-06-27T09:26:08.896Z,69.11
2023-06-27T09:28:55.104Z,67.56
2023-06-27T09:31:24.438Z,65.79
2023-06-27T09:34:10.639Z,64.35
2023-06-27T09:39:16.082Z,61.71
2023-06-27T09:41:50.862Z,60.69
2023-06-27T09:44:21.556Z,58.97
2023-06-27T09:46:53.152Z,57.77
2023-06-27T09:49:23.145Z,56.26
2023-06-27T09:51:54.244Z,56.74
2023-06-27T09:54:23.589Z,57.32
2023-06-27T09:56:53.652Z,58.28
2023-06-27T09:59:27.459Z,59.07
2023-06-27T10:01:55.909Z,57.45
2023-06-27T10:06:57.947Z,55.82
2023-06-27T10:09:26.159Z,56.78
2023-06-27T10:11:54.630Z,54.14
2023-06-27T10:14:23.531Z,54.25
2023-06-27T10:16:53.874Z,53.67
2023-06-27T10:19:22.524Z,52.95
2023-06-27T10:21:50.575Z,54.37
2023-06-27T10:24:21.066Z,55.33
2023-06-27T10:26:58.873Z,56.73
2023-06-27T10:29:33.630Z,58.60
2023-06-27T10:32:01.823Z,59.63
2023-06-27T10:34:41.848Z,62.70
2023-06-27T10:37:13.141Z,68.31
2023-06-27T10:39:42.968Z,71.65
2023-06-27T10:42:29.419Z,73.46
2023-06-27T10:45:08.139Z,74.84
2023-06-27T10:47:39.728Z,73.58
2023-06-27T10:50:12.077Z,74.68
2023-06-27T10:52:41.733Z,75.90
2023-06-27T10:55:33.886Z,75.75
2023-06-27T10:58:08.106Z,76.50
2023-06-27T11:00:37.311Z,72.35
2023-06-27T11:03:07.610Z,72.58
2023-06-27T11:05:45.684Z,69.28
2023-06-27T11:08:18.658Z,68.23
2023-06-27T11:11:12.087Z,67.58
2023-06-27T11:13:46.324Z,66.57
2023-06-27T11:16:14.764Z,65.71
2023-06-27T11:18:44.481Z,65.82
2023-06-27T11:21:15.071Z,63.58
2023-06-27T11:23:44.544Z,62.29
2023-06-27T11:26:14.871Z,61.58
2023-06-27T11:28:45.432Z,62.00
2023-06-27T11:31:13.425Z,61.08
2023-06-27T11:33:41.555Z,60.92
2023-06-27T11:36:11.541Z,59.52
2023-06-27T11:38:39.618Z,57.96
2023-06-27T11:41:07.578Z,55.87
2023-06-27T11:43:36.850Z,56.83
2023-06-27T11:46:05.285Z,55.71
2023-06-27T11:48:33.398Z,55.37
2023-06-27T11:51:08.482Z,53.86
2023-06-27T11:53:38.834Z,52.98
2023-06-27T11:56:21.520Z,50.66
2023-06-27T11:58:57.305Z,51.08
2023-06-27T12:01:27.059Z,69.26
2023-06-27T12:03:55.255Z,74.96
2023-06-27T12:06:27.793Z,80.88
2023-06-27T12:08:56.490Z,84.53
2023-06-27T12:11:29.444Z,84.49
2023-06-27T12:13:58.736Z,85.78
2023-06-27T12:16:30.725Z,87.02
2023-06-27T12:19:07.003Z,85.34
2023-06-27T12:21:35.519Z,82.58
2023-06-27T12:24:05.275Z,81.45
2023-06-27T12:26:33.314Z,79.47
2023-06-27T12:29:05.213Z,81.56
2023-06-27T12:31:34.458Z,78.82
2023-06-27T12:34:02.974Z,80.13
2023-06-27T12:36:32.045Z,78.14
2023-06-27T12:39:00.915Z,76.96
2023-06-27T12:41:30.684Z,76.60
2023-06-27T12:43:58.767Z,75.30
2023-06-27T12:46:28.297Z,74.33
2023-06-27T12:48:56.360Z,71.55
2023-06-27T12:51:24.744Z,67.79
2023-06-27T12:53:57.256Z,66.28
2023-06-27T12:56:25.187Z,64.11
2023-06-27T12:58:54.433Z,61.47
2023-06-27T13:01:25.240Z,59.21
2023-06-27T13:03:54.917Z,58.18
2023-06-27T13:06:22.826Z,56.21
2023-06-27T13:08:51.860Z,56.43
2023-06-27T13:11:20.253Z,55.32
2023-06-27T13:13:48.496Z,53.64
2023-06-27T13:16:17.175Z,53.21
2023-06-27T13:18:46.770Z,52.73
2023-06-27T13:21:16.596Z,54.96
2023-06-27T13:23:44.588Z,55.91
2023-06-27T13:26:12.933Z,52.96
2023-06-27T13:28:41.061Z,53.15
2023-06-27T13:31:11.306Z,52.12
2023-06-27T13:33:39.440Z,51.49
2023-06-27T13:36:08.076Z,50.35
2023-06-27T13:38:37.454Z,49.81
2023-06-27T13:41:05.604Z,48.19
2023-06-27T13:43:34.963Z,49.59
2023-06-27T13:46:04.152Z,49.91
2023-06-27T13:48:32.149Z,50.61
2023-06-27T13:51:00.345Z,53.32
2023-06-27T13:53:28.336Z,53.94
2023-06-27T13:55:58.145Z,54.11
2023-06-27T13:58:26.841Z,54.14
2023-06-27T14:00:55.168Z,53.00
2023-06-27T14:03:23.413Z,51.41
2023-06-27T14:05:52.376Z,49.55
2023-06-27T14:08:20.773Z,51.00
2023-06-27T14:10:48.982Z,50.00
2023-06-27T14:13:18.968Z,47.78
2023-06-27T14:15:46.900Z,48.42
2023-06-27T14:18:15.203Z,47.22
2023-06-27T14:20:43.562Z,47.94
2023-06-27T14:23:11.864Z,50.12
2023-06-27T14:25:39.934Z,51.96
2023-06-27T14:28:07.925Z,53.24
2023-06-27T14:30:38.168Z,53.26
2023-06-27T14:33:07.484Z,54.03
2023-06-27T14:35:35.485Z,54.04
2023-06-27T14:38:03.482Z,56.58
2023-06-27T14:40:31.546Z,84.28
2023-06-27T14:42:59.465Z,100.00
2023-06-27T14:45:28.375Z,100.00
2023-06-27T14:47:58.752Z,100.00
2023-06-27T16:00:26.965Z,100.00
2023-06-27T16:02:54.998Z,100.00
2023-06-27T16:05:23.150Z,100.00
2023-06-27T16:07:51.663Z,100.00
2023-06-27T16:10:19.758Z,100.00
2023-06-27T16:12:49.658Z,100.00
2023-06-27T16:15:17.904Z,100.00
2023-06-27T16:17:49.112Z,100.00
2023-06-27T16:20:19.590Z,100.00
2023-06-27T16:22:47.572Z,100.00
2023-06-27T16:25:16.444Z,100.00
2023-06-27T16:27:44.428Z,100.00
2023-06-27T16:30:13.482Z,100.00
2023-06-27T16:32:41.505Z,100.00
2023-06-27T16:35:11.728Z,100.00
2023-06-27T16:37:39.740Z,100.00
2023-06-27T16:40:09.757Z,100.00
2023-06-27T16:42:37.678Z,100.00
2023-06-27T16:45:07.237Z,100.00
2023-06-27T16:47:35.173Z,100.00
2023-06-27T16:50:04.214Z,100.00
2023-06-27T16:52:34.145Z,100.00
2023-06-27T16:55:03.488Z,100.00
2023-06-27T16:57:31.839Z,100.00
2023-06-27T17:00:03.642Z,100.00
2023-06-27T17:02:31.726Z,100.00
2023-06-27T17:04:59.634Z,100.00
2023-06-27T17:07:27.754Z,100.00
2023-06-27T17:09:57.202Z,100.00
2023-06-27T17:12:25.871Z,100.00
2023-06-27T17:14:54.041Z,100.00
2023-06-27T17:17:22.059Z,100.00
2023-06-27T17:19:50.547Z,100.00
2023-06-27T17:22:18.557Z,100.00
2023-06-27T17:24:47.481Z,100.00
2023-06-27T17:27:17.571Z,100.00
2023-06-27T17:29:45.542Z,100.00
2023-06-27T17:32:13.561Z,100.00
2023-06-27T17:34:41.419Z,100.00
2023-06-27T17:37:09.395Z,100.00
2023-06-27T17:39:37.334Z,100.00
2023-06-27T17:42:05.910Z,100.00
2023-06-27T17:44:35.279Z,100.00
2023-06-27T17:47:03.698Z,100.00
2023-06-27T17:49:31.600Z,100.00
2023-06-27T17:51:59.588Z,100.00
2023-06-27T17:54:27.697Z,100.00
2023-06-27T17:56:56.287Z,100.00
2023-06-27T17:59:24.295Z,100.00
2023-06-27T18:01:54.402Z,100.00
2023-06-27T18:04:22.918Z,100.00
2023-06-27T18:06:50.887Z,100.00
2023-06-27T18:09:20.220Z,100.00
2023-06-27T18:11:48.191Z,100.00
2023-06-27T18:14:16.162Z,100.00
2023-06-27T18:16:44.073Z,100.00
2023-06-27T18:19:13.490Z,100.00
2023-06-27T18:21:41.511Z,100.00
2023-06-27T18:24:10.286Z,100.00
2023-06-27T18:26:38.266Z,93.48
2023-06-27T18:29:06.193Z,84.30
2023-06-27T18:31:34.713Z,79.69
2023-06-27T18:34:03.915Z,78.82
2023-06-27T18:36:33.395Z,78.14
2023-06-27T18:39:06.092Z,78.94
2023-06-27T18:41:34.423Z,77.33
2023-06-27T18:44:02.476Z,77.81
2023-06-27T18:46:30.998Z,78.41
2023-06-27T18:48:59.067Z,80.25
2023-06-27T18:51:27.076Z,80.54
2023-06-27T18:53:58.383Z,82.04
2023-06-27T18:56:26.396Z,82.49
2023-06-27T18:58:54.428Z,82.49
2023-06-27T19:01:22.525Z,83.78
2023-06-27T19:03:50.611Z,85.33
2023-06-27T19:06:20.334Z,85.75
2023-06-27T19:08:48.352Z,84.37
2023-06-27T19:11:17.765Z,84.74
2023-06-27T19:13:47.206Z,85.17
2023-06-27T19:16:15.452Z,85.73
2023-06-27T19:18:44.132Z,84.98
2023-06-27T19:21:16.751Z,84.83
2023-06-27T19:23:44.741Z,85.58
2023-06-27T19:26:12.861Z,86.52
2023-06-27T19:28:42.206Z,86.44
2023-06-27T19:31:10.180Z,85.27
2023-06-27T19:33:38.115Z,83.78
2023-06-27T19:36:07.005Z,84.08
2023-06-27T19:38:35.556Z,84.27
2023-06-27T19:41:03.585Z,84.02
2023-06-27T19:43:31.533Z,84.15
2023-06-27T19:46:00.926Z,84.30
2023-06-27T19:48:29.344Z,83.80
2023-06-27T19:50:58.433Z,83.50
2023-06-27T19:53:26.840Z,83.70
2023-06-27T19:55:54.767Z,83.26
2023-06-27T19:58:22.745Z,83.33
2023-06-27T20:00:51.108Z,83.62
2023-06-27T20:03:20.475Z,84.56
2023-06-27T20:05:50.862Z,84.95
2023-06-27T20:08:21.231Z,85.28
2023-06-27T20:10:49.372Z,85.16
2023-06-27T20:13:17.487Z,85.67
2023-06-27T20:15:45.406Z,84.96
2023-06-27T20:18:13.460Z,84.11
2023-06-27T20:20:43.012Z,84.16
2023-06-27T20:23:11.205Z,84.72
2023-06-27T20:25:39.184Z,85.28
2023-06-27T20:28:07.191Z,85.10
2023-06-27T20:30:36.131Z,84.09
2023-06-27T20:33:05.084Z,83.76
2023-06-27T20:35:33.147Z,83.76
2023-06-27T20:38:02.489Z,84.03
2023-06-27T20:40:30.513Z,84.61
2023-06-27T20:42:58.479Z,85.31
2023-06-27T20:45:26.500Z,85.11
2023-06-27T20:47:54.518Z,84.71
2023-06-27T20:50:22.484Z,84.76
2023-06-27T20:52:50.497Z,85.51
2023-06-27T20:55:21.153Z,83.95
2023-06-27T20:57:49.152Z,83.74
2023-06-27T21:00:18.572Z,83.39
2023-06-27T21:02:46.646Z,83.25
2023-06-27T21:05:15.260Z,83.48
2023-06-27T21:07:43.221Z,83.63
2023-06-27T21:10:12.246Z,83.94
2023-06-27T21:12:41.940Z,84.50
2023-06-27T21:15:10.394Z,85.76
2023-06-27T21:17:38.787Z,87.66
2023-06-27T21:20:09.290Z,87.79
2023-06-27T21:22:37.266Z,89.23
2023-06-27T21:25:05.949Z,89.96
2023-06-27T21:27:50.033Z,90.86
2023-06-27T21:30:20.765Z,91.30
2023-06-27T21:32:48.880Z,90.63
2023-06-27T21:35:16.901Z,90.36
2023-06-27T21:37:45.036Z,90.50
2023-06-27T21:40:14.418Z,90.63
2023-06-27T21:42:42.436Z,90.30
2023-06-27T21:45:11.794Z,90.50
2023-06-27T21:47:41.134Z,90.06
2023-06-27T21:50:10.123Z,89.96
2023-06-27T21:52:38.155Z,89.31
2023-06-27T21:55:07.553Z,88.73
2023-06-27T21:57:35.553Z,87.66
2023-06-27T22:00:04.218Z,87.26
2023-06-27T22:02:32.417Z,86.94
2023-06-27T22:05:02.103Z,86.83
2023-06-27T22:07:30.170Z,87.03
2023-06-27T22:09:59.339Z,87.29
2023-06-27T22:12:28.608Z,87.50
2023-06-27T22:14:57.427Z,87.29
2023-06-27T22:17:25.514Z,87.38
2023-06-27T22:19:53.608Z,87.24
2023-06-27T22:22:23.451Z,87.51
2023-06-27T22:24:54.316Z,87.86
2023-06-27T22:27:22.740Z,87.90
2023-06-27T22:29:51.366Z,88.28
2023-06-27T22:32:19.325Z,88.01
2023-06-27T22:34:47.865Z,88.37
2023-06-27T22:37:15.933Z,88.66
2023-06-27T22:39:45.837Z,88.97
2023-06-27T22:42:13.928Z,89.43
2023-06-27T22:44:41.972Z,90.00
2023-06-27T22:47:10.460Z,90.86
2023-06-27T22:49:38.545Z,90.86
2023-06-27T22:52:06.803Z,91.45
2023-06-27T22:54:34.834Z,91.48
2023-06-27T22:57:04.440Z,92.06
2023-06-27T22:59:32.421Z,92.50
2023-06-27T23:02:00.455Z,92.88
2023-06-27T23:04:28.435Z,93.14
2023-06-27T23:06:56.491Z,92.75
2023-06-27T23:09:24.463Z,92.47
2023-06-27T23:11:52.393Z,92.01
2023-06-27T23:14:21.831Z,92.05
2023-06-27T23:16:49.996Z,92.07
2023-06-27T23:19:20.363Z,92.04
2023-06-27T23:21:48.361Z,92.44
2023-06-27T23:24:27.373Z,92.46
2023-06-27T23:26:59.163Z,92.70
2023-06-27T23:29:30.210Z,92.88
2023-06-27T23:32:00.121Z,92.74
2023-06-27T23:34:29.812Z,93.22
2023-06-27T23:36:57.914Z,93.48
2023-06-27T23:39:25.932Z,93.13
2023-06-27T23:41:54.327Z,93.57
2023-06-27T23:44:22.417Z,93.22
2023-06-27T23:46:51.899Z,92.63
2023-06-27T23:49:20.352Z,92.82
2023-06-27T23:51:48.937Z,91.91
2023-06-27T23:54:18.070Z,91.44
2023-06-27T23:56:46.048Z,90.91
2023-06-27T23:59:14.004Z,90.62
